Time;durP1;ratioP1;P1;durP2;ratioP2;P2;SDS_P1;SDS_P2;PMS_P1;PMS_P2;Temp;Humidity;BMP_temperature;BMP_pressure;BME280_temperature;BME280_humidity;BME280_pressure;Samples;Min_cycle;Max_cycle;Signal;HPM_P1;HPM_P2
2023/04/20 00:01:55;;;;;;;5.65;3.70;;;;;;;-146.18;100.00;67994.34;10075471;28;20215;-73
2023/04/20 00:06:52;;;;;;;7.03;3.90;;;;;;;-146.18;100.00;67994.34;10070858;28;20047;-72
2023/04/20 00:11:49;;;;;;;6.85;3.60;;;;;;;-146.18;100.00;67994.34;10070973;28;20390;-71
2023/04/20 00:16:47;;;;;;;8.27;3.85;;;;;;;-146.18;100.00;67994.34;10060841;28;20051;-72
2023/04/20 00:21:47;;;;;;;6.80;3.80;;;;;;;-146.18;100.00;67994.34;10066855;28;20094;-73
2023/04/20 00:26:44;;;;;;;4.55;3.70;;;;;;;-146.18;100.00;67994.34;10064652;28;20130;-72
2023/04/20 00:31:41;;;;;;;6.10;3.85;;;;;;;-146.18;100.00;67994.34;10072302;28;20047;-71
2023/04/20 00:36:37;;;;;;;4.93;3.55;;;;;;;-146.18;100.00;67994.34;10060640;28;20461;-70
2023/04/20 00:41:34;;;;;;;5.20;3.85;;;;;;;-146.18;100.00;67994.34;10060231;28;20166;-75
2023/04/20 00:46:30;;;;;;;5.32;3.45;;;;;;;-146.18;100.00;67994.34;10063559;28;20745;-75
2023/04/20 00:51:28;;;;;;;7.05;3.90;;;;;;;-146.18;100.00;67994.34;10072061;28;20047;-75
2023/04/20 00:56:24;;;;;;;7.10;3.67;;;;;;;-146.18;100.00;67994.34;10067632;28;20138;-73
2023/04/20 01:01:21;;;;;;;7.30;4.30;;;;;;;-146.18;100.00;67994.34;10062977;28;20541;-73
2023/04/20 01:06:17;;;;;;;6.38;4.00;;;;;;;-146.18;100.00;67994.34;10062945;28;20063;-74
2023/04/20 01:11:14;;;;;;;7.90;3.80;;;;;;;-146.18;100.00;67994.34;10062559;28;20086;-72
2023/04/20 01:16:11;;;;;;;7.47;4.38;;;;;;;-146.18;100.00;67994.34;10069987;28;20522;-73
2023/04/20 01:21:07;;;;;;;6.82;4.40;;;;;;;-146.18;100.00;67994.34;10063286;28;20126;-71
2023/04/20 01:26:09;;;;;;;6.75;3.75;;;;;;;-146.18;100.00;67994.34;10067725;28;20134;-71
2023/04/20 01:31:06;;;;;;;4.65;3.75;;;;;;;-146.18;100.00;67994.34;10062722;28;20126;-73
2023/04/20 01:36:05;;;;;;;9.75;4.38;;;;;;;-146.18;100.00;67994.34;10068439;28;20130;-72
2023/04/20 01:41:04;;;;;;;6.75;4.30;;;;;;;-146.18;100.00;67994.34;10058494;28;20074;-72
2023/04/20 01:46:01;;;;;;;7.53;4.80;;;;;;;-146.18;100.00;67994.34;10062581;28;20048;-69
2023/04/20 01:50:57;;;;;;;7.78;4.65;;;;;;;-146.18;100.00;67994.34;10061742;28;20079;-71
2023/04/20 01:55:54;;;;;;;6.65;3.40;;;;;;;-146.18;100.00;67994.34;10072795;28;20051;-71
2023/04/20 02:00:50;;;;;;;7.35;4.45;;;;;;;-146.18;100.00;67994.34;10067561;28;20099;-72
2023/04/20 02:05:47;;;;;;;7.90;4.60;;;;;;;-146.18;100.00;67994.34;10068548;28;20051;-71
2023/04/20 02:10:43;;;;;;;6.00;4.25;;;;;;;-146.18;100.00;67994.34;10059411;28;20682;-73
2023/04/20 02:15:40;;;;;;;6.25;4.22;;;;;;;-146.18;100.00;67994.34;10065474;28;20051;-75
2023/04/20 02:20:36;;;;;;;7.65;4.00;;;;;;;-146.18;100.00;67994.34;10071722;28;20054;-75
2023/04/20 02:25:33;;;;;;;8.15;4.40;;;;;;;-146.18;100.00;67994.34;10056667;28;20682;-72
2023/04/20 02:30:30;;;;;;;6.88;4.25;;;;;;;-146.18;100.00;67994.34;10060128;28;20568;-73
2023/04/20 02:35:26;;;;;;;7.63;5.03;;;;;;;-146.18;100.00;67994.34;10073927;28;20043;-72
2023/04/20 02:40:23;;;;;;;17.48;5.38;;;;;;;-146.18;100.00;67994.34;10061043;28;20047;-72
2023/04/20 02:45:19;;;;;;;8.68;5.07;;;;;;;-146.18;100.00;67994.34;10068317;28;20521;-72
2023/04/20 02:50:16;;;;;;;10.15;4.53;;;;;;;-146.18;100.00;67994.34;10063519;28;20074;-74
2023/04/20 02:55:12;;;;;;;8.50;4.45;;;;;;;-146.18;100.00;67994.34;10065272;28;20051;-74
2023/04/20 03:00:12;;;;;;;8.98;5.20;;;;;;;-146.18;100.00;67994.34;10083196;28;20053;-74
2023/04/20 03:05:09;;;;;;;10.85;4.65;;;;;;;-146.18;100.00;67994.34;10072849;28;20051;-71
2023/04/20 03:10:06;;;;;;;9.77;5.15;;;;;;;-146.18;100.00;67994.34;10077985;28;20051;-76
2023/04/20 03:15:06;;;;;;;8.32;5.20;;;;;;;-146.18;100.00;67994.34;10076782;28;20621;-75
2023/04/20 03:20:03;;;;;;;11.35;5.30;;;;;;;-146.18;100.00;67994.34;10080140;28;20505;-74
2023/04/20 03:25:00;;;;;;;7.90;5.43;;;;;;;-146.18;100.00;67994.34;10071159;28;20047;-74
2023/04/20 03:29:56;;;;;;;9.98;5.90;;;;;;;-146.18;100.00;67994.34;10072476;28;20445;-76
2023/04/20 03:34:53;;;;;;;10.30;5.50;;;;;;;-146.18;100.00;67994.34;10068550;28;20138;-72
2023/04/20 03:39:49;;;;;;;8.30;6.07;;;;;;;-146.18;100.00;67994.34;10073682;28;20190;-73
2023/04/20 03:44:46;;;;;;;10.57;6.18;;;;;;;-146.18;100.00;67994.34;10074496;28;20501;-73
2023/04/20 03:49:42;;;;;;;10.05;6.30;;;;;;;-146.18;100.00;67994.34;10061468;28;20134;-72
2023/04/20 03:54:39;;;;;;;10.30;6.32;;;;;;;-146.18;100.00;67994.34;10068553;28;20146;-73
2023/04/20 03:59:35;;;;;;;12.73;7.03;;;;;;;-146.18;100.00;67994.34;10062622;28;20145;-73
2023/04/20 04:04:32;;;;;;;11.77;6.32;;;;;;;-146.18;100.00;67994.34;10073372;28;20071;-70
2023/04/20 04:09:29;;;;;;;16.17;7.00;;;;;;;-146.18;100.00;67994.34;10067475;28;20501;-71
2023/04/20 04:14:25;;;;;;;11.52;6.80;;;;;;;-146.18;100.00;67994.34;10059724;28;20142;-74
2023/04/20 04:19:22;;;;;;;11.98;6.57;;;;;;;-146.18;100.00;67994.34;10069424;28;20051;-74
2023/04/20 04:24:18;;;;;;;11.10;7.55;;;;;;;-146.18;100.00;67994.34;10068057;28;20130;-74
2023/04/20 04:29:14;;;;;;;11.10;7.20;;;;;;;-146.18;100.00;67994.34;10066574;28;20078;-73
2023/04/20 04:34:12;;;;;;;13.13;7.20;;;;;;;-146.18;100.00;67994.34;10069540;28;20051;-74
2023/04/20 04:39:09;;;;;;;12.82;8.63;;;;;;;-146.18;100.00;67994.34;10064832;28;20075;-74
2023/04/20 04:44:10;;;;;;;14.73;7.95;;;;;;;-146.18;100.00;67994.34;10071127;28;20066;-73
2023/04/20 04:49:06;;;;;;;14.27;7.65;;;;;;;-146.18;100.00;67994.34;10062348;28;20117;-74
2023/04/20 04:54:03;;;;;;;14.95;7.57;;;;;;;-146.18;100.00;67994.34;10068750;28;20051;-74
2023/04/20 04:59:00;;;;;;;11.02;7.45;;;;;;;-146.18;100.00;67994.34;10064587;28;20134;-74
2023/04/20 05:03:56;;;;;;;19.70;8.63;;;;;;;-146.18;100.00;67994.34;10059771;28;20050;-74
2023/04/20 05:08:53;;;;;;;17.55;8.45;;;;;;;-146.18;100.00;67994.34;10051364;28;20597;-75
2023/04/20 05:13:50;;;;;;;16.88;8.73;;;;;;;-146.18;100.00;67994.34;10046796;28;20047;-74
2023/04/20 05:18:46;;;;;;;14.75;8.63;;;;;;;-146.18;100.00;67994.34;10054648;28;20462;-74
2023/04/20 05:23:43;;;;;;;11.38;7.80;;;;;;;-146.18;100.00;67994.34;10052707;28;20138;-74
2023/04/20 05:28:39;;;;;;;12.82;8.25;;;;;;;-146.18;100.00;67994.34;10046111;28;20051;-74
2023/04/20 05:33:36;;;;;;;16.17;9.98;;;;;;;-146.18;100.00;67994.34;10055708;28;20039;-74
2023/04/20 05:38:32;;;;;;;16.25;10.25;;;;;;;-146.18;100.00;67994.34;10055076;28;20061;-74
2023/04/20 05:43:28;;;;;;;20.20;9.35;;;;;;;-146.18;100.00;67994.34;10058046;28;20517;-74
2023/04/20 05:48:26;;;;;;;14.43;9.45;;;;;;;-146.18;100.00;67994.34;10049718;28;20082;-74
2023/04/20 05:53:25;;;;;;;16.60;9.70;;;;;;;-146.18;100.00;67994.34;10050946;28;20071;-74
2023/04/20 05:58:22;;;;;;;15.77;9.52;;;;;;;-146.18;100.00;67994.34;10061733;28;20053;-74
2023/04/20 06:03:19;;;;;;;15.60;8.93;;;;;;;-146.18;100.00;67994.34;10051364;28;20187;-74
2023/04/20 06:08:17;;;;;;;16.73;9.13;;;;;;;-146.18;100.00;67994.34;10053143;28;20071;-74
2023/04/20 06:13:14;;;;;;;16.98;9.32;;;;;;;-146.18;100.00;67994.34;10051778;28;20047;-74
2023/04/20 06:18:10;;;;;;;17.27;9.27;;;;;;;-146.18;100.00;67994.34;10059684;28;20523;-74
2023/04/20 06:23:07;;;;;;;15.45;9.38;;;;;;;-146.18;100.00;67994.34;10066473;28;20049;-75
2023/04/20 06:28:05;;;;;;;21.00;11.10;;;;;;;-146.18;100.00;67994.34;10064772;28;20077;-74
2023/04/20 06:33:01;;;;;;;16.55;9.23;;;;;;;-146.18;100.00;67994.34;10058167;28;20047;-74
2023/04/20 06:38:01;;;;;;;13.30;8.88;;;;;;;-146.18;100.00;67994.34;10063091;28;20062;-75
2023/04/20 06:42:57;;;;;;;16.33;10.52;;;;;;;-146.18;100.00;67994.34;10064710;28;20067;-75
2023/04/20 06:47:54;;;;;;;17.38;9.75;;;;;;;-146.18;100.00;67994.34;10066411;28;20051;-74
2023/04/20 06:52:50;;;;;;;16.48;9.65;;;;;;;-146.18;100.00;67994.34;10066906;28;20047;-75
2023/04/20 06:57:47;;;;;;;13.02;8.82;;;;;;;-146.18;100.00;67994.34;10067133;28;20059;-74
2023/04/20 07:02:45;;;;;;;10.82;8.82;;;;;;;-146.18;100.00;67994.34;10066328;28;20113;-75
2023/04/20 07:07:42;;;;;;;13.15;9.00;;;;;;;-146.18;100.00;67994.34;10069719;28;20059;-74
2023/04/20 07:12:40;;;;;;;12.75;9.25;;;;;;;-146.18;100.00;67994.34;10051909;28;20150;-74
2023/04/20 07:17:39;;;;;;;15.30;9.40;;;;;;;-146.18;100.00;67994.34;10068322;28;20047;-74
2023/04/20 07:22:36;;;;;;;17.15;9.30;;;;;;;-146.18;100.00;67994.34;10063145;28;20047;-74
2023/04/20 07:27:37;;;;;;;13.02;9.25;;;;;;;-146.18;100.00;67994.34;10058701;28;20094;-74
2023/04/20 07:32:34;;;;;;;21.25;9.45;;;;;;;-146.18;100.00;67994.34;10057789;28;20043;-74
2023/04/20 07:37:32;;;;;;;15.23;9.82;;;;;;;-146.18;100.00;67994.34;10070660;28;20513;-74
2023/04/20 07:42:28;;;;;;;19.75;10.68;;;;;;;-146.18;100.00;67994.34;10071192;28;20134;-74
2023/04/20 07:47:25;;;;;;;20.10;10.30;;;;;;;-146.18;100.00;67994.34;10060190;28;20713;-74
2023/04/20 07:52:23;;;;;;;17.50;10.57;;;;;;;-146.18;100.00;67994.34;10055781;28;20055;-74
2023/04/20 07:57:19;;;;;;;13.25;9.40;;;;;;;-146.18;100.00;67994.34;10062605;28;20039;-74
2023/04/20 08:02:16;;;;;;;23.02;11.63;;;;;;;-146.18;100.00;67994.34;10062743;28;20102;-75
2023/04/20 08:07:13;;;;;;;13.35;8.98;;;;;;;-146.18;100.00;67994.34;10057935;28;20051;-75
2023/04/20 08:12:09;;;;;;;16.35;8.90;;;;;;;-146.18;100.00;67994.34;10061226;28;20505;-75
2023/04/20 08:17:06;;;;;;;13.88;9.32;;;;;;;-146.18;100.00;67994.34;10060659;28;20086;-75
2023/04/20 08:22:04;;;;;;;17.92;10.60;;;;;;;-146.18;100.00;67994.34;10064142;28;20043;-74
2023/04/20 08:27:01;;;;;;;15.15;9.70;;;;;;;-146.18;100.00;67994.34;10056103;28;20055;-75
2023/04/20 08:31:57;;;;;;;16.75;9.85;;;;;;;-146.18;100.00;67994.34;10057512;28;20075;-75
2023/04/20 08:36:54;;;;;;;21.38;10.43;;;;;;;-146.18;100.00;67994.34;10062167;28;20043;-74
2023/04/20 08:41:54;;;;;;;16.20;10.43;;;;;;;-146.18;100.00;67994.34;10057148;28;20078;-74
2023/04/20 08:46:51;;;;;;;14.43;10.13;;;;;;;-146.18;100.00;67994.34;10053553;28;20085;-74
2023/04/20 08:51:47;;;;;;;13.00;9.85;;;;;;;-146.18;100.00;67994.34;10054339;28;20070;-74
2023/04/20 08:56:46;;;;;;;16.08;10.82;;;;;;;-146.18;100.00;67994.34;10064296;28;20054;-75
2023/04/20 09:01:43;;;;;;;12.32;9.48;;;;;;;-146.18;100.00;67994.34;10064658;28;20051;-75
2023/04/20 09:06:42;;;;;;;12.25;9.35;;;;;;;-146.18;100.00;67994.34;10053175;28;20515;-75
2023/04/20 09:11:39;;;;;;;15.52;10.57;;;;;;;-146.18;100.00;67994.34;10059836;28;20047;-75
2023/04/20 09:16:38;;;;;;;15.25;9.43;;;;;;;-146.18;100.00;67994.34;10059454;28;21503;-75
2023/04/20 09:21:34;;;;;;;15.20;9.07;;;;;;;-146.18;100.00;67994.34;10063579;28;20513;-75
2023/04/20 09:26:35;;;;;;;15.02;9.15;;;;;;;-146.18;100.00;67994.34;10062049;28;20701;-74
2023/04/20 09:31:35;;;;;;;14.25;10.45;;;;;;;-146.18;100.00;67994.34;10065315;28;20051;-75
2023/04/20 09:36:35;;;;;;;14.40;10.10;;;;;;;-146.18;100.00;67994.34;10062628;28;20109;-73
2023/04/20 09:41:34;;;;;;;12.15;9.52;;;;;;;-146.18;100.00;67994.34;10057439;28;20563;-74
2023/04/20 09:46:32;;;;;;;13.55;10.15;;;;;;;-146.18;100.00;67994.34;10054889;28;20047;-74
2023/04/20 09:51:34;;;;;;;19.00;10.55;;;;;;;-146.18;100.00;67994.34;10056258;28;20070;-74
2023/04/20 09:56:34;;;;;;;13.60;10.98;;;;;;;-146.18;100.00;67994.34;10063267;28;20131;-74
2023/04/20 10:01:33;;;;;;;17.38;10.88;;;;;;;-146.18;100.00;67994.34;10060701;28;20055;-74
2023/04/20 10:06:32;;;;;;;24.85;11.63;;;;;;;-146.18;100.00;67994.34;10062867;28;20615;-74
2023/04/20 10:11:36;;;;;;;17.70;11.35;;;;;;;-146.18;100.00;67994.34;10064731;28;20047;-74
2023/04/20 10:16:59;;;;;;;17.33;9.60;;;;;;;-146.18;100.00;67994.34;10059660;28;20083;-74
2023/04/20 10:21:56;;;;;;;11.07;7.70;;;;;;;-146.18;100.00;67994.34;10060853;28;20057;-74
2023/04/20 10:26:52;;;;;;;18.15;10.68;;;;;;;-146.18;100.00;67994.34;10054169;28;20580;-74
2023/04/20 10:31:49;;;;;;;13.32;9.52;;;;;;;-146.18;100.00;67994.34;10063625;28;20065;-74
2023/04/20 10:36:46;;;;;;;15.38;9.57;;;;;;;-146.18;100.00;67994.34;10067173;28;20514;-74
2023/04/20 10:41:54;;;;;;;20.25;10.23;;;;;;;-146.18;100.00;67994.34;10065675;28;20090;-74
2023/04/20 10:46:50;;;;;;;18.30;11.75;;;;;;;-146.18;100.00;67994.34;10046786;28;20054;-74
2023/04/20 10:51:52;;;;;;;14.75;9.20;;;;;;;-146.18;100.00;67994.34;10057772;28;20047;-73
2023/04/20 10:56:52;;;;;;;14.95;9.80;;;;;;;-146.18;100.00;67994.34;10064386;28;20509;-73
2023/04/20 11:01:50;;;;;;;13.23;9.30;;;;;;;-146.18;100.00;67994.34;10046249;28;20047;-74
2023/04/20 11:06:47;;;;;;;13.18;10.65;;;;;;;-146.18;100.00;67994.34;10055784;28;20138;-73
2023/04/20 11:11:44;;;;;;;11.65;9.77;;;;;;;-146.18;100.00;67994.34;10061884;28;20071;-73
2023/04/20 11:16:50;;;;;;;14.73;10.68;;;;;;;-146.18;100.00;67994.34;10062022;28;20083;-74
2023/04/20 11:21:47;;;;;;;17.02;11.23;;;;;;;-146.18;100.00;67994.34;10058652;28;20105;-73
2023/04/20 11:26:45;;;;;;;13.77;9.60;;;;;;;-146.18;100.00;67994.34;10065433;28;20043;-73
2023/04/20 11:31:41;;;;;;;15.23;10.07;;;;;;;-146.18;100.00;67994.34;10062674;28;20450;-73
2023/04/20 11:36:38;;;;;;;16.00;10.15;;;;;;;-146.18;100.00;67994.34;10058925;28;20055;-73
2023/04/20 11:41:37;;;;;;;14.18;10.55;;;;;;;-146.18;100.00;67994.34;10065414;28;20054;-73
2023/04/20 11:46:36;;;;;;;16.00;11.13;;;;;;;-146.18;100.00;67994.34;10060818;28;20065;-73
2023/04/20 11:51:33;;;;;;;15.85;11.02;;;;;;;-146.18;100.00;67994.34;10062144;28;20051;-73
2023/04/20 11:56:29;;;;;;;13.60;11.25;;;;;;;-146.18;100.00;67994.34;10061952;28;20040;-74
2023/04/20 12:01:25;;;;;;;12.88;10.02;;;;;;;-146.18;100.00;67994.34;10061090;28;20039;-74
2023/04/20 12:06:22;;;;;;;11.82;10.27;;;;;;;-146.18;100.00;67994.34;10051261;28;20099;-74
2023/04/20 12:11:18;;;;;;;17.60;11.55;;;;;;;-146.18;100.00;67994.34;10065751;28;20047;-73
2023/04/20 12:16:15;;;;;;;17.13;12.23;;;;;;;-146.18;100.00;67994.34;10063772;28;20514;-73
2023/04/20 12:21:12;;;;;;;17.00;12.48;;;;;;;-146.18;100.00;67994.34;10066536;28;20138;-73
2023/04/20 12:26:09;;;;;;;15.73;11.50;;;;;;;-146.18;100.00;67994.34;10071248;28;20523;-73
2023/04/20 12:31:06;;;;;;;17.38;11.85;;;;;;;-146.18;100.00;67994.34;10060828;28;20586;-73
2023/04/20 12:36:03;;;;;;;16.13;12.27;;;;;;;-146.18;100.00;67994.34;10058195;28;20146;-73
2023/04/20 12:40:59;;;;;;;16.75;11.65;;;;;;;-146.18;100.00;67994.34;10047554;28;20502;-73
2023/04/20 12:45:56;;;;;;;20.17;13.90;;;;;;;-146.18;100.00;67994.34;10059693;28;20135;-73
2023/04/20 12:50:52;;;;;;;16.98;11.90;;;;;;;-146.18;100.00;67994.34;10055978;28;20079;-73
2023/04/20 12:55:49;;;;;;;20.42;13.93;;;;;;;-146.18;100.00;67994.34;10067854;28;20102;-73
2023/04/20 13:00:56;;;;;;;18.48;12.98;;;;;;;-146.18;100.00;67994.34;10057084;28;20644;-73
2023/04/20 13:05:53;;;;;;;17.02;12.73;;;;;;;-146.18;100.00;67994.34;10063128;28;20131;-73
2023/04/20 13:10:49;;;;;;;17.15;11.80;;;;;;;-146.18;100.00;67994.34;10061651;28;20516;-74
2023/04/20 13:15:46;;;;;;;16.35;12.63;;;;;;;-146.18;100.00;67994.34;10067632;28;20126;-73
2023/04/20 13:20:42;;;;;;;19.85;12.07;;;;;;;-146.18;100.00;67994.34;10059989;28;20211;-74
2023/04/20 13:25:39;;;;;;;17.75;12.20;;;;;;;-146.18;100.00;67994.34;10061982;28;20510;-74
2023/04/20 13:30:36;;;;;;;14.10;12.38;;;;;;;-146.18;100.00;67994.34;10058210;28;20679;-74
2023/04/20 13:35:33;;;;;;;21.48;12.95;;;;;;;-146.18;100.00;67994.34;10029993;28;20139;-74
2023/04/20 13:40:29;;;;;;;17.13;11.75;;;;;;;-146.18;100.00;67994.34;10045002;28;20056;-74
2023/04/20 13:45:26;;;;;;;17.00;12.38;;;;;;;-146.18;100.00;67994.34;10054224;28;20051;-73
2023/04/20 13:50:23;;;;;;;18.52;13.07;;;;;;;-146.18;100.00;67994.34;10069303;28;20047;-74
2023/04/20 13:55:20;;;;;;;15.68;12.00;;;;;;;-146.18;100.00;67994.34;10054471;28;20097;-74
2023/04/20 14:00:17;;;;;;;18.77;12.50;;;;;;;-146.18;100.00;67994.34;10058237;28;20081;-74
2023/04/20 14:05:13;;;;;;;22.75;14.85;;;;;;;-146.18;100.00;67994.34;10056798;28;20603;-74
2023/04/20 14:10:10;;;;;;;18.50;12.25;;;;;;;-146.18;100.00;67994.34;10060235;28;20185;-74
2023/04/20 14:15:06;;;;;;;20.98;12.57;;;;;;;-146.18;100.00;67994.34;10060555;28;20182;-74
2023/04/20 14:20:04;;;;;;;16.33;13.05;;;;;;;-146.18;100.00;67994.34;10060344;28;20134;-73
2023/04/20 14:25:05;;;;;;;19.13;13.00;;;;;;;-146.18;100.00;67994.34;10058407;29;20713;-74
2023/04/20 14:30:01;;;;;;;19.13;12.98;;;;;;;-146.18;100.00;67994.34;10059730;28;20162;-74
2023/04/20 14:34:58;;;;;;;21.65;12.95;;;;;;;-146.18;100.00;67994.34;10059250;28;20056;-74
2023/04/20 14:39:54;;;;;;;21.05;12.85;;;;;;;-146.18;100.00;67994.34;10051907;28;20115;-74
2023/04/20 14:44:51;;;;;;;20.90;13.23;;;;;;;-146.18;100.00;67994.34;10056724;28;20139;-74
2023/04/20 14:49:47;;;;;;;22.30;13.32;;;;;;;-146.18;100.00;67994.34;10062790;28;20050;-73
2023/04/20 14:54:44;;;;;;;25.05;13.63;;;;;;;-146.18;100.00;67994.34;10062929;28;20074;-72
2023/04/20 14:59:40;;;;;;;22.55;12.98;;;;;;;-146.18;100.00;67994.34;10062070;28;20073;-72
2023/04/20 15:04:37;;;;;;;19.73;12.50;;;;;;;-146.18;100.00;67994.34;10064472;28;20035;-72
2023/04/20 15:09:34;;;;;;;22.45;13.05;;;;;;;-146.18;100.00;67994.34;10060185;28;20484;-72
2023/04/20 15:14:30;;;;;;;23.13;13.55;;;;;;;-146.18;100.00;67994.34;10071805;28;20051;-73
2023/04/20 15:19:27;;;;;;;20.02;11.60;;;;;;;-146.18;100.00;67994.34;10066678;28;20150;-73
2023/04/20 15:24:26;;;;;;;24.02;13.18;;;;;;;-146.18;100.00;67994.34;10063292;28;20414;-73
2023/04/20 15:29:22;;;;;;;19.27;12.05;;;;;;;-146.18;100.00;67994.34;10069154;28;20059;-73
2023/04/20 15:34:19;;;;;;;21.70;13.38;;;;;;;-146.18;100.00;67994.34;10061506;28;20051;-72
2023/04/20 15:39:16;;;;;;;19.52;12.32;;;;;;;-146.18;100.00;67994.34;10073064;28;20428;-73
2023/04/20 15:44:13;;;;;;;20.40;13.25;;;;;;;-146.18;100.00;67994.34;10060681;28;20066;-73
2023/04/20 15:49:09;;;;;;;16.55;12.38;;;;;;;-146.18;100.00;67994.34;10066821;28;20062;-73
2023/04/20 15:54:06;;;;;;;18.58;11.65;;;;;;;-146.18;100.00;67994.34;10068030;28;20086;-73
2023/04/20 15:59:03;;;;;;;15.10;11.68;;;;;;;-146.18;100.00;67994.34;10063186;28;20105;-73
2023/04/20 16:04:00;;;;;;;14.15;9.88;;;;;;;-146.18;100.00;67994.34;10062886;28;20050;-72
2023/04/20 16:08:56;;;;;;;16.02;10.50;;;;;;;-146.18;100.00;67994.34;10066927;28;20055;-72
2023/04/20 16:13:55;;;;;;;16.83;12.60;;;;;;;-146.18;100.00;67994.34;10065892;28;20050;-72
2023/04/20 16:18:51;;;;;;;12.25;10.32;;;;;;;-146.18;100.00;67994.34;10060455;28;20509;-72
2023/04/20 16:23:52;;;;;;;13.50;10.70;;;;;;;-146.18;100.00;67994.34;10064130;28;20126;-72
2023/04/20 16:28:48;;;;;;;16.33;11.55;;;;;;;-146.18;100.00;67994.34;10050087;28;21139;-72
2023/04/20 16:33:45;;;;;;;15.00;11.48;;;;;;;-146.18;100.00;67994.34;10051014;28;20134;-72
2023/04/20 16:38:42;;;;;;;20.48;13.02;;;;;;;-146.18;100.00;67994.34;10062091;28;20421;-72
2023/04/20 16:43:39;;;;;;;17.30;11.50;;;;;;;-146.18;100.00;67994.34;10061135;28;20126;-72
2023/04/20 16:48:36;;;;;;;21.88;11.32;;;;;;;-146.18;100.00;67994.34;10055498;28;20051;-72
2023/04/20 16:53:32;;;;;;;16.67;11.73;;;;;;;-146.18;100.00;67994.34;10066504;28;20099;-72
2023/04/20 16:58:29;;;;;;;18.98;11.35;;;;;;;-146.18;100.00;67994.34;10062227;28;20689;-71
2023/04/20 17:03:25;;;;;;;17.67;10.85;;;;;;;-146.18;100.00;67994.34;10064541;28;20036;-73
2023/04/20 17:08:25;;;;;;;19.38;11.05;;;;;;;-146.18;100.00;67994.34;10057836;28;20046;-73
2023/04/20 17:13:21;;;;;;;22.38;12.52;;;;;;;-146.18;100.00;67994.34;10065722;28;20055;-73
2023/04/20 17:18:18;;;;;;;12.85;10.50;;;;;;;-146.18;100.00;67994.34;10056887;28;20094;-73
2023/04/20 17:23:16;;;;;;;22.33;11.75;;;;;;;-146.18;100.00;67994.34;10055838;28;20122;-73
2023/04/20 17:28:13;;;;;;;26.55;12.40;;;;;;;-146.18;100.00;67994.34;10068006;28;20674;-73
2023/04/20 17:33:11;;;;;;;15.85;11.50;;;;;;;-146.18;100.00;67994.34;10059621;28;20060;-73
2023/04/20 17:38:07;;;;;;;12.63;9.40;;;;;;;-146.18;100.00;67994.34;10054583;28;20039;-73
2023/04/20 17:43:04;;;;;;;17.42;11.00;;;;;;;-146.18;100.00;67994.34;10054521;28;20402;-73
2023/04/20 17:48:02;;;;;;;18.55;10.90;;;;;;;-146.18;100.00;67994.34;10056150;28;20057;-73
2023/04/20 17:53:05;;;;;;;17.70;11.18;;;;;;;-146.18;100.00;67994.34;10062996;28;20102;-73
2023/04/20 17:58:02;;;;;;;17.15;11.55;;;;;;;-146.18;100.00;67994.34;10057808;28;20058;-73
2023/04/20 18:03:01;;;;;;;20.45;11.85;;;;;;;-146.18;100.00;67994.34;10050661;28;20476;-73
2023/04/20 18:08:00;;;;;;;15.53;10.10;;;;;;;-146.18;100.00;67994.34;10059299;28;20051;-73
2023/04/20 18:12:57;;;;;;;16.50;10.45;;;;;;;-146.18;100.00;67994.34;10064810;28;20047;-73
2023/04/20 18:17:54;;;;;;;17.95;10.00;;;;;;;-146.18;100.00;67994.34;10041723;28;20052;-73
2023/04/20 18:22:51;;;;;;;17.75;11.25;;;;;;;-146.18;100.00;67994.34;10036148;28;20062;-73
2023/04/20 18:27:48;;;;;;;18.15;11.02;;;;;;;-146.18;100.00;67994.34;10060775;28;20222;-73
2023/04/20 18:32:45;;;;;;;17.77;10.18;;;;;;;-146.18;100.00;67994.34;10069912;28;20054;-73
2023/04/20 18:37:41;;;;;;;16.27;10.75;;;;;;;-146.18;100.00;67994.34;10062343;28;20054;-73
2023/04/20 18:42:38;;;;;;;16.90;10.85;;;;;;;-146.18;100.00;67994.34;10061710;28;20051;-73
2023/04/20 18:47:34;;;;;;;19.85;11.73;;;;;;;-146.18;100.00;67994.34;10065898;28;20063;-73
2023/04/20 18:52:32;;;;;;;22.48;11.18;;;;;;;-146.18;100.00;67994.34;10062702;28;20658;-73
2023/04/20 18:57:29;;;;;;;19.95;11.27;;;;;;;-146.18;100.00;67994.34;10067914;28;20083;-73
2023/04/20 19:02:26;;;;;;;17.60;11.02;;;;;;;-146.18;100.00;67994.34;10068124;28;20523;-73
2023/04/20 19:07:23;;;;;;;19.67;10.65;;;;;;;-146.18;100.00;67994.34;10061157;28;20051;-73
2023/04/20 19:12:20;;;;;;;19.30;11.27;;;;;;;-146.18;100.00;67994.34;10069309;28;20130;-73
2023/04/20 19:17:16;;;;;;;15.15;10.70;;;;;;;-146.18;100.00;67994.34;10064405;28;20098;-73
2023/04/20 19:22:13;;;;;;;24.80;11.60;;;;;;;-146.18;100.00;67994.34;10070192;28;20130;-73
2023/04/20 19:27:09;;;;;;;13.93;10.70;;;;;;;-146.18;100.00;67994.34;10059843;28;20088;-73
2023/04/20 19:32:06;;;;;;;16.27;10.00;;;;;;;-146.18;100.00;67994.34;10059074;28;20502;-70
2023/04/20 19:37:03;;;;;;;23.08;13.20;;;;;;;-146.18;100.00;67994.34;10060850;28;20167;-71
2023/04/20 19:42:01;;;;;;;21.00;12.20;;;;;;;-146.18;100.00;67994.34;10062852;28;20083;-77
2023/04/20 19:47:02;;;;;;;20.02;10.45;;;;;;;-146.18;100.00;67994.34;10073139;28;20049;-71
2023/04/20 19:51:58;;;;;;;21.42;12.20;;;;;;;-146.18;100.00;67994.34;10065284;28;20114;-70
2023/04/20 19:56:56;;;;;;;17.85;11.57;;;;;;;-146.18;100.00;67994.34;10072402;28;20097;-70
2023/04/20 20:01:53;;;;;;;17.50;10.95;;;;;;;-146.18;100.00;67994.34;10058578;28;20062;-70
2023/04/20 20:06:50;;;;;;;17.70;11.40;;;;;;;-146.18;100.00;67994.34;10071631;28;20058;-70
2023/04/20 20:11:48;;;;;;;16.92;11.20;;;;;;;-146.18;100.00;67994.34;10073237;28;20043;-70
2023/04/20 20:16:45;;;;;;;15.88;10.13;;;;;;;-146.18;100.00;67994.34;10062384;28;20082;-71
2023/04/20 20:21:41;;;;;;;22.00;11.63;;;;;;;-146.18;100.00;67994.34;10067712;28;20126;-70
2023/04/20 20:26:38;;;;;;;20.85;10.98;;;;;;;-146.18;100.00;67994.34;10070007;28;20070;-71
2023/04/20 20:31:34;;;;;;;20.88;10.90;;;;;;;-146.18;100.00;67994.34;10071307;28;20647;-71
2023/04/20 20:36:32;;;;;;;22.70;10.85;;;;;;;-146.18;100.00;67994.34;10076070;28;20075;-71
2023/04/20 20:41:29;;;;;;;17.50;11.35;;;;;;;-146.18;100.00;67994.34;10073469;28;20638;-70
2023/04/20 20:46:25;;;;;;;22.48;10.88;;;;;;;-146.18;100.00;67994.34;10059411;28;20509;-68
2023/04/20 20:51:22;;;;;;;20.63;10.68;;;;;;;-146.18;100.00;67994.34;10076841;28;20505;-70
2023/04/20 20:56:18;;;;;;;22.33;11.13;;;;;;;-146.18;100.00;67994.34;10067652;28;20048;-70
2023/04/20 21:01:16;;;;;;;16.70;11.45;;;;;;;-146.18;100.00;67994.34;10070821;28;20057;-71
2023/04/20 21:06:13;;;;;;;13.27;10.80;;;;;;;-146.18;100.00;67994.34;10072644;28;20421;-70
2023/04/20 21:11:09;;;;;;;16.40;10.93;;;;;;;-146.18;100.00;67994.34;10073826;28;20134;-73
2023/04/20 21:16:06;;;;;;;23.83;11.48;;;;;;;-146.18;100.00;67994.34;10071600;28;20497;-74
2023/04/20 21:21:02;;;;;;;18.63;10.68;;;;;;;-146.18;100.00;67994.34;10071807;28;20078;-74
2023/04/20 21:25:59;;;;;;;20.25;12.32;;;;;;;-146.18;100.00;67994.34;10069032;28;20047;-73
2023/04/20 21:30:55;;;;;;;18.42;11.35;;;;;;;-146.18;100.00;67994.34;10066609;28;20142;-73
2023/04/20 21:35:52;;;;;;;16.88;11.07;;;;;;;-146.18;100.00;67994.34;10064874;28;20063;-74
2023/04/20 21:40:49;;;;;;;18.15;12.02;;;;;;;-146.18;100.00;67994.34;10063583;28;20054;-73
2023/04/20 21:45:45;;;;;;;20.77;12.48;;;;;;;-146.18;100.00;67994.34;10067014;28;20459;-74
2023/04/20 21:50:42;;;;;;;21.67;13.05;;;;;;;-146.18;100.00;67994.34;10077115;28;20071;-74
2023/04/20 21:55:38;;;;;;;20.90;13.55;;;;;;;-146.18;100.00;67994.34;10073272;28;20051;-74